createdAt,value
2023-03-18T00:01:04.173Z,7.20
2023-03-18T00:02:37.174Z,7.10
2023-03-18T00:04:09.620Z,7.10
2023-03-18T00:05:43.991Z,7.10
2023-03-18T00:07:16.971Z,7.10
2023-03-18T00:08:51.227Z,7.10
2023-03-18T00:10:23.422Z,7.00
2023-03-18T00:11:57.199Z,7.10
2023-03-18T00:13:30.110Z,7.10
2023-03-18T00:15:02.973Z,7.00
2023-03-18T00:16:36.784Z,7.00
2023-03-18T00:18:09.746Z,7.10
2023-03-18T00:19:42.673Z,7.10
2023-03-18T00:21:17.700Z,7.00
2023-03-18T00:22:51.670Z,7.00
2023-03-18T00:24:24.669Z,7.00
2023-03-18T00:25:58.227Z,6.90
2023-03-18T00:27:31.642Z,6.90
2023-03-18T00:29:04.431Z,6.80
2023-03-18T00:30:41.977Z,6.80
2023-03-18T00:32:14.845Z,6.80
2023-03-18T00:33:47.928Z,6.70
2023-03-18T00:35:19.828Z,6.70
2023-03-18T00:36:56.983Z,6.80
2023-03-18T00:38:30.435Z,6.80
2023-03-18T00:40:06.384Z,6.80
2023-03-18T00:41:39.333Z,6.80
2023-03-18T00:43:12.754Z,6.80
2023-03-18T00:44:46.928Z,6.80
2023-03-18T00:46:23.451Z,6.80
2023-03-18T00:47:56.575Z,6.70
2023-03-18T00:49:29.553Z,6.70
2023-03-18T00:51:02.414Z,6.70
2023-03-18T00:52:37.357Z,6.70
2023-03-18T00:54:12.939Z,6.70
2023-03-18T00:55:46.441Z,6.60
2023-03-18T00:57:19.352Z,6.60
2023-03-18T00:58:53.810Z,6.60
2023-03-18T01:00:27.174Z,6.60
2023-03-18T01:01:59.907Z,6.60
2023-03-18T01:03:33.903Z,6.60
2023-03-18T01:05:07.116Z,6.60
2023-03-18T01:06:40.635Z,6.60
2023-03-18T01:08:13.895Z,6.60
2023-03-18T01:09:46.831Z,6.60
2023-03-18T01:11:19.122Z,6.60
2023-03-18T01:12:52.262Z,6.50
2023-03-18T01:14:25.227Z,6.50
2023-03-18T01:15:58.356Z,6.50
2023-03-18T01:17:31.442Z,6.50
2023-03-18T01:19:04.359Z,6.50
2023-03-18T01:20:37.998Z,6.50
2023-03-18T01:22:11.012Z,6.50
2023-03-18T01:23:45.561Z,6.50
2023-03-18T01:25:18.496Z,6.50
2023-03-18T01:26:52.059Z,6.50
2023-03-18T01:28:25.149Z,6.50
2023-03-18T01:29:58.550Z,6.50
2023-03-18T01:31:30.361Z,6.50
2023-03-18T01:33:04.588Z,6.50
2023-03-18T01:34:37.539Z,6.50
2023-03-18T01:36:11.556Z,6.40
2023-03-18T01:37:46.662Z,6.40
2023-03-18T01:39:21.253Z,6.40
2023-03-18T01:40:54.661Z,6.40
2023-03-18T01:42:27.497Z,6.40
2023-03-18T01:44:02.093Z,6.30
2023-03-18T01:45:35.970Z,6.30
2023-03-18T01:47:10.426Z,6.30
2023-03-18T01:48:43.726Z,6.30
2023-03-18T01:50:19.649Z,6.30
2023-03-18T01:51:56.563Z,6.30
2023-03-18T01:53:34.456Z,6.30
2023-03-18T01:55:13.985Z,6.30
2023-03-18T01:56:48.522Z,6.30
2023-03-18T01:58:24.516Z,6.30
2023-03-18T01:59:58.844Z,6.30
2023-03-18T02:01:36.140Z,6.40
2023-03-18T02:03:09.219Z,6.40
2023-03-18T02:04:44.539Z,6.40
2023-03-18T02:06:17.540Z,6.40
2023-03-18T02:07:49.738Z,6.40
2023-03-18T02:09:22.668Z,6.40
2023-03-18T02:10:57.040Z,6.40
2023-03-18T02:12:37.049Z,6.30
2023-03-18T02:14:13.712Z,6.40
2023-03-18T02:15:50.565Z,6.40
2023-03-18T02:17:25.411Z,6.40
2023-03-18T02:19:02.710Z,6.40
2023-03-18T02:20:49.449Z,6.40
2023-03-18T02:22:29.263Z,6.40
2023-03-18T02:24:22.287Z,6.40
2023-03-18T02:26:03.504Z,6.40
2023-03-18T02:27:40.993Z,6.40
2023-03-18T02:29:18.275Z,6.40
2023-03-18T02:30:54.445Z,6.40
2023-03-18T02:32:28.674Z,6.50
2023-03-18T02:34:01.839Z,6.50
2023-03-18T02:35:35.941Z,6.50
2023-03-18T02:37:08.881Z,6.50
2023-03-18T02:38:42.962Z,6.50
2023-03-18T02:40:17.988Z,6.50
2023-03-18T02:41:51.312Z,6.50
2023-03-18T02:43:25.883Z,6.50
2023-03-18T02:45:00.650Z,6.50
2023-03-18T02:46:44.111Z,6.50
2023-03-18T02:48:18.594Z,6.50
2023-03-18T02:49:52.191Z,6.50
2023-03-18T02:51:25.248Z,6.50
2023-03-18T02:52:59.770Z,6.40
2023-03-18T02:54:32.898Z,6.50
2023-03-18T02:56:06.969Z,6.50
2023-03-18T02:57:39.871Z,6.50
2023-03-18T02:59:14.246Z,6.40
2023-03-18T03:00:46.233Z,6.40
2023-03-18T03:02:19.128Z,6.40
2023-03-18T03:03:52.334Z,6.40
2023-03-18T03:05:24.270Z,6.40
2023-03-18T03:06:58.067Z,6.40
2023-03-18T03:08:30.467Z,6.40
2023-03-18T03:10:03.551Z,6.30
2023-03-18T03:11:37.047Z,6.30
2023-03-18T03:13:11.558Z,6.30
2023-03-18T03:14:45.869Z,6.30
2023-03-18T03:16:19.698Z,6.20
2023-03-18T03:17:52.890Z,6.20
2023-03-18T03:19:27.865Z,6.20
2023-03-18T03:20:59.913Z,6.20
2023-03-18T03:22:33.023Z,6.10
2023-03-18T03:24:07.908Z,6.20
2023-03-18T03:25:40.151Z,6.10
2023-03-18T03:27:13.541Z,6.10
2023-03-18T03:28:46.386Z,6.20
2023-03-18T03:30:20.125Z,6.20
2023-03-18T03:31:53.003Z,6.20
2023-03-18T03:33:25.191Z,6.20
2023-03-18T03:34:58.056Z,6.20
2023-03-18T03:36:30.987Z,6.20
2023-03-18T03:38:04.172Z,6.20
2023-03-18T03:39:37.181Z,6.10
2023-03-18T03:41:10.795Z,6.10
2023-03-18T03:42:45.011Z,6.10
2023-03-18T03:44:18.158Z,6.10
2023-03-18T03:45:52.491Z,6.00
2023-03-18T03:47:24.569Z,6.10
2023-03-18T03:48:57.473Z,6.00
2023-03-18T03:50:29.580Z,6.00
2023-03-18T03:52:02.769Z,6.00
2023-03-18T03:53:36.028Z,6.00
2023-03-18T03:55:12.432Z,6.00
2023-03-18T03:56:46.109Z,6.00
2023-03-18T03:58:19.182Z,6.00
2023-03-18T03:59:52.213Z,6.00
2023-03-18T04:01:27.232Z,6.00
2023-03-18T04:02:59.653Z,5.90
2023-03-18T04:04:32.837Z,5.90
2023-03-18T04:06:06.588Z,5.90
2023-03-18T04:07:38.763Z,5.90
2023-03-18T04:09:11.746Z,5.90
2023-03-18T04:10:44.795Z,5.80
2023-03-18T04:12:18.265Z,5.90
2023-03-18T04:13:51.181Z,5.80
2023-03-18T04:15:24.265Z,5.90
2023-03-18T04:17:00.422Z,5.90
2023-03-18T04:18:33.336Z,5.90
2023-03-18T04:20:08.836Z,6.00
2023-03-18T04:21:42.631Z,6.00
2023-03-18T04:23:15.632Z,6.10
2023-03-18T04:24:47.899Z,6.10
2023-03-18T04:26:20.933Z,6.10
2023-03-18T04:27:53.922Z,6.10
2023-03-18T04:29:25.934Z,6.20
2023-03-18T04:30:59.541Z,6.20
2023-03-18T04:32:34.216Z,6.20
2023-03-18T04:34:07.768Z,6.30
2023-03-18T04:35:41.202Z,6.30
2023-03-18T04:37:14.514Z,6.30
2023-03-18T04:38:46.402Z,6.40
2023-03-18T04:40:20.020Z,6.40
2023-03-18T04:41:54.588Z,6.40
2023-03-18T04:43:27.533Z,6.30
2023-03-18T04:44:59.624Z,6.30
2023-03-18T04:46:32.825Z,6.30
2023-03-18T04:48:07.516Z,6.30
2023-03-18T04:49:40.585Z,6.30
2023-03-18T04:51:13.578Z,6.30
2023-03-18T04:52:46.534Z,6.30
2023-03-18T04:54:18.483Z,6.20
2023-03-18T04:55:51.805Z,6.20
2023-03-18T04:57:25.076Z,6.10
2023-03-18T04:58:57.974Z,6.10
2023-03-18T05:00:30.901Z,6.10
2023-03-18T05:02:04.781Z,6.10
2023-03-18T05:03:38.155Z,6.10
2023-03-18T05:05:11.569Z,6.00
2023-03-18T05:06:44.347Z,6.00
2023-03-18T05:08:17.407Z,6.00
2023-03-18T05:09:50.426Z,6.00
2023-03-18T05:11:22.500Z,6.00
2023-03-18T05:12:55.767Z,5.90
2023-03-18T05:14:28.878Z,5.90
2023-03-18T05:16:01.910Z,5.90
2023-03-18T05:17:35.294Z,5.90
2023-03-18T05:19:09.512Z,5.90
2023-03-18T05:20:42.368Z,5.90
2023-03-18T05:22:17.468Z,5.90
2023-03-18T05:23:50.400Z,5.80
2023-03-18T05:25:23.694Z,5.80
2023-03-18T05:26:57.357Z,5.80
2023-03-18T05:28:30.822Z,5.90
2023-03-18T05:30:03.585Z,5.90
2023-03-18T05:31:35.557Z,5.90
2023-03-18T05:33:08.550Z,5.90
2023-03-18T05:34:43.844Z,5.90
2023-03-18T05:36:15.826Z,5.90
2023-03-18T05:37:49.020Z,5.90
2023-03-18T05:39:21.019Z,5.90
2023-03-18T05:40:54.484Z,5.90
2023-03-18T05:42:27.219Z,5.90
2023-03-18T05:44:00.115Z,5.90
2023-03-18T05:45:33.656Z,5.90
2023-03-18T05:47:06.588Z,5.90
2023-03-18T05:48:39.497Z,5.90
2023-03-18T05:50:14.630Z,5.90
2023-03-18T05:51:48.294Z,5.90
2023-03-18T05:53:22.108Z,5.90
2023-03-18T05:54:55.609Z,6.00
2023-03-18T05:56:28.509Z,5.90
2023-03-18T05:58:00.959Z,6.00
2023-03-18T05:59:33.834Z,6.00
2023-03-18T06:01:07.313Z,6.00
2023-03-18T06:02:40.161Z,6.00
2023-03-18T06:04:13.740Z,6.10
2023-03-18T06:05:49.207Z,6.10
2023-03-18T06:07:22.700Z,6.10
2023-03-18T06:08:56.212Z,6.10
2023-03-18T06:10:29.249Z,6.20
2023-03-18T06:12:01.397Z,6.20
2023-03-18T06:13:34.334Z,6.30
2023-03-18T06:15:09.166Z,6.30
2023-03-18T06:16:43.324Z,6.30
2023-03-18T06:18:17.108Z,6.40
2023-03-18T06:19:49.040Z,6.40
2023-03-18T06:21:23.432Z,6.50
2023-03-18T06:22:56.719Z,6.50
2023-03-18T06:24:29.762Z,6.50
2023-03-18T06:26:01.777Z,6.60
2023-03-18T06:27:34.866Z,6.60
2023-03-18T06:29:08.357Z,6.70
2023-03-18T06:30:41.423Z,6.70
2023-03-18T06:32:14.561Z,6.70
2023-03-18T06:33:47.436Z,6.80
2023-03-18T06:35:20.469Z,6.80
2023-03-18T06:36:54.736Z,6.90
2023-03-18T06:38:28.812Z,6.80
2023-03-18T06:40:00.833Z,7.00
2023-03-18T06:41:33.786Z,7.00
2023-03-18T06:43:06.894Z,7.00
2023-03-18T06:44:42.877Z,7.10
2023-03-18T06:46:15.843Z,7.10
2023-03-18T06:47:49.528Z,7.20
2023-03-18T06:49:21.756Z,7.20
2023-03-18T06:50:55.123Z,7.30
2023-03-18T06:52:29.297Z,7.40
2023-03-18T06:54:02.406Z,7.40
2023-03-18T06:55:35.619Z,7.50
2023-03-18T06:57:08.475Z,7.60
2023-03-18T06:58:41.379Z,7.60
2023-03-18T07:00:14.931Z,7.70
2023-03-18T07:01:49.283Z,7.70
2023-03-18T07:03:22.222Z,7.70
2023-03-18T07:04:55.301Z,7.70
2023-03-18T07:06:28.428Z,7.80
2023-03-18T07:08:02.920Z,7.80
2023-03-18T07:09:34.820Z,7.80
2023-03-18T07:11:08.104Z,7.80
2023-03-18T07:12:41.279Z,7.80
2023-03-18T07:14:16.003Z,7.80
2023-03-18T07:15:48.909Z,7.80
2023-03-18T07:17:21.833Z,7.80
2023-03-18T07:18:54.799Z,7.80
2023-03-18T07:20:28.745Z,7.80
2023-03-18T07:22:02.308Z,7.90
2023-03-18T07:23:36.621Z,7.80
2023-03-18T07:25:10.012Z,7.90
2023-03-18T07:26:42.705Z,7.90
2023-03-18T07:28:15.577Z,7.90
2023-03-18T07:29:48.435Z,8.00
2023-03-18T07:31:21.485Z,8.10
2023-03-18T07:32:55.477Z,8.10
2023-03-18T07:34:28.721Z,8.10
2023-03-18T07:36:01.705Z,8.10
2023-03-18T07:37:35.897Z,8.20
2023-03-18T07:39:11.044Z,8.20
2023-03-18T07:40:43.969Z,8.30
2023-03-18T07:42:16.922Z,8.30
2023-03-18T07:43:49.914Z,8.40
2023-03-18T07:45:22.832Z,8.40
2023-03-18T07:46:55.965Z,8.50
2023-03-18T07:48:28.866Z,8.60
2023-03-18T07:50:02.625Z,8.60
2023-03-18T07:51:35.525Z,8.70
2023-03-18T07:53:08.565Z,8.90
2023-03-18T07:54:43.017Z,8.90
2023-03-18T07:56:16.452Z,9.00
2023-03-18T07:57:49.245Z,9.10
2023-03-18T07:59:22.146Z,9.20
2023-03-18T08:00:55.142Z,9.30
2023-03-18T08:02:28.674Z,9.40
2023-03-18T08:04:00.673Z,9.50
2023-03-18T08:05:34.029Z,9.60
2023-03-18T08:07:07.289Z,9.70
2023-03-18T08:08:41.957Z,9.70
2023-03-18T08:10:16.290Z,9.80
2023-03-18T08:11:49.251Z,9.80
2023-03-18T08:13:22.100Z,9.80
2023-03-18T08:14:55.629Z,10.00
2023-03-18T08:16:28.642Z,10.00
2023-03-18T08:18:01.736Z,10.10
2023-03-18T08:19:34.622Z,10.10
2023-03-18T08:21:07.847Z,10.20
2023-03-18T08:22:41.050Z,10.20
2023-03-18T08:24:14.040Z,10.20
2023-03-18T08:25:50.803Z,10.30
2023-03-18T08:27:23.851Z,10.30
2023-03-18T08:28:56.779Z,10.40
2023-03-18T08:30:30.494Z,10.40
2023-03-18T08:32:04.139Z,10.40
2023-03-18T08:33:37.296Z,10.50
2023-03-18T08:35:11.140Z,10.50
2023-03-18T08:36:45.123Z,10.60
2023-03-18T08:38:18.239Z,10.60
2023-03-18T08:39:51.394Z,10.70
2023-03-18T08:41:26.261Z,10.80
2023-03-18T08:42:59.394Z,10.80
2023-03-18T08:44:32.945Z,10.80
2023-03-18T08:46:06.544Z,10.90
2023-03-18T08:47:39.875Z,10.90
2023-03-18T08:49:14.010Z,10.90
2023-03-18T08:50:46.940Z,10.90
2023-03-18T08:52:20.148Z,10.90
2023-03-18T08:53:53.136Z,10.90
2023-03-18T08:55:30.806Z,10.90
2023-03-18T08:57:05.806Z,10.90
2023-03-18T08:58:38.762Z,10.90
2023-03-18T09:00:13.434Z,11.00
2023-03-18T09:01:46.428Z,11.00
2023-03-18T09:03:19.341Z,11.10
2023-03-18T09:04:53.415Z,11.20
2023-03-18T09:06:27.684Z,11.20
2023-03-18T09:08:01.025Z,11.30
2023-03-18T09:09:43.229Z,11.40
2023-03-18T09:11:18.562Z,11.50
2023-03-18T09:12:52.889Z,11.60
2023-03-18T09:14:26.453Z,11.60
2023-03-18T09:15:59.956Z,11.70
2023-03-18T09:17:50.899Z,11.70
2023-03-18T09:19:25.832Z,11.80
2023-03-18T09:20:58.798Z,11.90
2023-03-18T09:22:32.232Z,11.90
2023-03-18T09:24:07.386Z,11.90
2023-03-18T09:25:42.525Z,12.00
2023-03-18T09:27:15.655Z,12.00
2023-03-18T09:28:50.077Z,12.10
2023-03-18T09:30:23.134Z,12.20
2023-03-18T09:31:56.471Z,12.20
2023-03-18T09:33:29.358Z,12.30
2023-03-18T09:35:01.634Z,12.30
2023-03-18T09:36:34.648Z,12.40
2023-03-18T09:38:08.235Z,12.40
2023-03-18T09:39:42.037Z,12.50
2023-03-18T09:41:29.823Z,12.50
2023-03-18T09:43:21.273Z,12.60
2023-03-18T09:44:59.036Z,12.70
2023-03-18T09:46:43.215Z,12.80
2023-03-18T09:48:46.753Z,12.90
2023-03-18T09:50:29.692Z,12.90
2023-03-18T09:52:13.800Z,13.00
2023-03-18T09:53:53.345Z,13.10
2023-03-18T09:55:32.284Z,13.20
2023-03-18T09:57:07.503Z,13.20
2023-03-18T09:58:49.360Z,13.20
2023-03-18T10:00:29.043Z,13.30
2023-03-18T10:02:02.854Z,13.40
2023-03-18T10:03:40.671Z,13.50
2023-03-18T10:05:19.174Z,13.50
2023-03-18T10:06:58.118Z,13.60
2023-03-18T10:08:43.018Z,13.60
2023-03-18T10:10:25.241Z,13.70
2023-03-18T10:12:07.393Z,13.70
2023-03-18T10:13:45.472Z,13.80
2023-03-18T10:15:21.600Z,13.80
2023-03-18T10:17:06.779Z,13.90
2023-03-18T10:18:42.099Z,13.90
2023-03-18T10:20:19.121Z,14.00
2023-03-18T10:22:02.897Z,14.00
2023-03-18T10:23:41.810Z,14.00
2023-03-18T10:25:23.380Z,14.00
2023-03-18T10:27:08.649Z,14.10
2023-03-18T10:29:01.587Z,14.10
2023-03-18T10:30:47.341Z,14.20
2023-03-18T10:32:46.393Z,14.30
2023-03-18T10:34:23.925Z,14.30
2023-03-18T10:36:05.761Z,14.40
2023-03-18T10:37:52.378Z,14.50
2023-03-18T10:39:28.262Z,14.60
2023-03-18T10:41:02.428Z,14.50
2023-03-18T10:42:38.911Z,14.40
2023-03-18T10:44:19.475Z,14.40
2023-03-18T10:46:02.160Z,14.50
2023-03-18T10:47:42.756Z,14.50
2023-03-18T10:49:19.186Z,14.60
2023-03-18T10:51:02.965Z,14.70
2023-03-18T10:52:38.205Z,14.70
2023-03-18T10:54:15.797Z,14.70
2023-03-18T10:55:57.489Z,14.70
2023-03-18T10:57:32.509Z,14.80
2023-03-18T10:59:13.159Z,14.80
2023-03-18T11:00:46.032Z,14.80
2023-03-18T11:02:21.299Z,14.80
2023-03-18T11:04:01.411Z,14.90
2023-03-18T11:05:37.441Z,15.00
2023-03-18T11:07:18.956Z,15.10
2023-03-18T11:09:00.933Z,15.20
2023-03-18T11:10:39.570Z,15.20
2023-03-18T11:12:19.308Z,15.30
2023-03-18T11:13:54.005Z,15.40
2023-03-18T11:15:26.969Z,15.40
2023-03-18T11:17:01.398Z,15.50
2023-03-18T11:18:37.442Z,15.50
2023-03-18T11:20:24.525Z,15.60
2023-03-18T11:22:20.288Z,15.70
2023-03-18T11:24:13.229Z,15.70
2023-03-18T11:25:49.839Z,15.80
2023-03-18T11:27:28.989Z,15.80
2023-03-18T11:29:14.196Z,15.90
2023-03-18T11:30:49.564Z,15.90
2023-03-18T11:32:26.617Z,15.90
2023-03-18T11:34:00.651Z,15.90
2023-03-18T11:35:40.479Z,16.00
2023-03-18T11:37:14.320Z,16.00
2023-03-18T11:38:58.969Z,16.00
2023-03-18T11:40:32.789Z,16.00
2023-03-18T11:42:18.845Z,16.00
2023-03-18T11:44:00.321Z,16.00
2023-03-18T11:45:55.764Z,16.10
2023-03-18T11:47:31.198Z,16.20
2023-03-18T11:49:04.600Z,16.20
2023-03-18T11:50:54.220Z,16.30
2023-03-18T11:52:36.280Z,16.20
2023-03-18T11:54:34.734Z,16.30
2023-03-18T11:56:16.405Z,16.30
2023-03-18T11:58:16.551Z,16.30
2023-03-18T11:59:59.617Z,16.40
2023-03-18T12:01:40.880Z,16.40
2023-03-18T12:03:49.927Z,16.50
2023-03-18T12:05:44.217Z,16.60
2023-03-18T12:07:31.018Z,16.70
2023-03-18T12:09:10.841Z,16.70
2023-03-18T12:10:48.795Z,16.70
2023-03-18T12:12:38.172Z,16.70
2023-03-18T12:14:21.228Z,16.70
2023-03-18T12:16:02.073Z,16.70
2023-03-18T12:17:49.376Z,16.80
2023-03-18T12:19:45.212Z,16.80
2023-03-18T12:21:44.815Z,16.80
2023-03-18T12:23:41.227Z,16.90
2023-03-18T12:25:30.449Z,17.00
2023-03-18T12:27:12.779Z,17.10
2023-03-18T12:29:00.237Z,17.10
2023-03-18T12:30:49.297Z,17.10
2023-03-18T12:32:28.840Z,17.10
2023-03-18T12:34:03.986Z,17.10
2023-03-18T12:35:46.653Z,17.00
2023-03-18T12:37:32.201Z,17.00
2023-03-18T12:39:34.387Z,17.10
2023-03-18T12:41:14.864Z,17.10
2023-03-18T12:43:02.187Z,16.90
2023-03-18T12:44:47.754Z,16.80
2023-03-18T12:46:28.799Z,16.80
2023-03-18T12:48:05.576Z,16.80
2023-03-18T12:49:42.239Z,16.70
2023-03-18T12:51:19.499Z,16.70
2023-03-18T12:52:59.652Z,16.60
2023-03-18T12:54:37.613Z,16.60
2023-03-18T12:56:16.056Z,16.70
2023-03-18T12:57:51.770Z,16.90
2023-03-18T12:59:32.605Z,17.00
2023-03-18T13:01:11.620Z,17.20
2023-03-18T13:02:50.397Z,17.30
2023-03-18T13:04:28.813Z,17.40
2023-03-18T13:06:05.258Z,17.60
2023-03-18T13:07:44.210Z,17.70
2023-03-18T13:09:27.071Z,17.80
2023-03-18T13:11:10.558Z,17.90
2023-03-18T13:12:47.676Z,17.90
2023-03-18T13:14:27.349Z,17.90
2023-03-18T13:16:03.676Z,17.90
2023-03-18T13:17:40.075Z,17.90
2023-03-18T13:19:13.014Z,17.90
2023-03-18T13:20:47.698Z,17.90
2023-03-18T13:22:57.169Z,17.80
2023-03-18T13:24:56.637Z,17.80
2023-03-18T13:26:43.421Z,17.90
2023-03-18T13:28:35.739Z,17.90
2023-03-18T13:30:25.780Z,17.90
2023-03-18T13:32:15.783Z,17.90
2023-03-18T13:34:20.023Z,17.90
2023-03-18T13:36:17.058Z,18.00
2023-03-18T13:38:29.477Z,18.10
2023-03-18T13:40:31.058Z,18.10
2023-03-18T13:42:25.982Z,18.20
2023-03-18T13:44:01.133Z,18.20
2023-03-18T13:45:38.980Z,18.20
2023-03-18T13:47:17.927Z,18.20
2023-03-18T13:48:57.039Z,18.20
2023-03-18T13:50:35.990Z,18.10
2023-03-18T13:52:24.961Z,18.00
2023-03-18T13:54:00.910Z,18.00
2023-03-18T13:55:42.836Z,18.00
2023-03-18T13:57:33.781Z,18.00
2023-03-18T13:59:07.578Z,17.90
2023-03-18T14:00:41.904Z,17.90
2023-03-18T14:02:42.629Z,18.00
2023-03-18T14:04:31.450Z,18.10
2023-03-18T14:06:40.819Z,18.10
2023-03-18T14:08:37.052Z,18.00
2023-03-18T14:10:19.804Z,18.00
2023-03-18T14:11:54.798Z,17.90
2023-03-18T14:13:29.496Z,17.90
2023-03-18T14:15:05.849Z,18.00
2023-03-18T14:16:54.134Z,18.00
2023-03-18T14:18:28.595Z,18.00
2023-03-18T14:20:22.798Z,18.10
2023-03-18T14:22:05.712Z,18.20
2023-03-18T14:23:44.896Z,18.30
2023-03-18T14:25:26.081Z,18.40
2023-03-18T14:27:18.510Z,18.50
2023-03-18T14:28:56.874Z,18.60
2023-03-18T14:30:45.869Z,18.70
2023-03-18T14:32:39.699Z,18.80
2023-03-18T14:34:27.794Z,19.00
2023-03-18T14:36:03.449Z,19.10
2023-03-18T14:37:57.369Z,19.10
2023-03-18T14:39:33.822Z,19.20
2023-03-18T14:41:17.355Z,19.30
2023-03-18T14:42:58.317Z,19.30
2023-03-18T14:44:40.967Z,19.30
2023-03-18T14:46:18.926Z,19.40
2023-03-18T14:47:53.944Z,19.50
2023-03-18T14:49:36.636Z,19.50
2023-03-18T14:51:14.939Z,19.50
2023-03-18T14:52:55.702Z,19.50
2023-03-18T14:54:33.700Z,19.40
2023-03-18T14:56:17.421Z,19.30
2023-03-18T14:57:52.045Z,19.30
2023-03-18T14:59:26.314Z,19.20
2023-03-18T15:01:05.869Z,19.10
2023-03-18T15:02:40.529Z,19.10
2023-03-18T15:04:19.680Z,19.10
2023-03-18T15:05:58.091Z,19.10
2023-03-18T15:07:35.999Z,19.10
2023-03-18T15:09:14.745Z,19.20
2023-03-18T15:10:49.930Z,19.30
2023-03-18T15:12:30.538Z,19.40
2023-03-18T15:14:11.696Z,19.40
2023-03-18T15:15:45.499Z,19.40
2023-03-18T15:17:18.568Z,19.30
2023-03-18T15:18:54.740Z,19.30
2023-03-18T15:20:27.948Z,19.20
2023-03-18T15:22:03.467Z,19.20
2023-03-18T15:23:39.316Z,19.20
2023-03-18T15:25:18.495Z,19.10
2023-03-18T15:26:58.868Z,19.10
2023-03-18T15:28:32.181Z,19.20
2023-03-18T15:30:11.643Z,19.20
2023-03-18T15:31:46.154Z,19.20
2023-03-18T15:33:23.001Z,19.30
2023-03-18T15:34:58.035Z,19.30
2023-03-18T15:36:31.069Z,19.30
2023-03-18T15:38:16.131Z,19.30
2023-03-18T15:39:49.807Z,19.30
2023-03-18T15:41:25.520Z,19.30
2023-03-18T15:43:00.041Z,19.30
2023-03-18T15:44:36.997Z,19.20
2023-03-18T15:46:18.573Z,19.10
2023-03-18T15:47:52.114Z,19.00
2023-03-18T15:49:28.445Z,18.90
2023-03-18T15:51:03.235Z,18.80
2023-03-18T15:52:41.738Z,18.80
2023-03-18T15:54:19.357Z,18.70
2023-03-18T15:55:55.355Z,18.70
2023-03-18T15:57:34.987Z,18.60
2023-03-18T15:59:15.828Z,18.50
2023-03-18T16:00:48.982Z,18.50
2023-03-18T16:02:23.652Z,18.40
2023-03-18T16:03:56.618Z,18.40
2023-03-18T16:05:30.013Z,18.30
2023-03-18T16:07:04.328Z,18.10
2023-03-18T16:08:37.331Z,18.00
2023-03-18T16:10:11.428Z,17.90
2023-03-18T16:11:45.973Z,17.80
2023-03-18T16:13:23.427Z,17.70
2023-03-18T16:14:56.501Z,17.60
2023-03-18T16:16:31.693Z,17.60
2023-03-18T16:18:06.215Z,17.60
2023-03-18T16:19:39.185Z,17.50
2023-03-18T16:21:14.378Z,17.50
2023-03-18T16:22:47.405Z,17.50
2023-03-18T16:24:20.715Z,17.50
2023-03-18T16:25:54.494Z,17.40
2023-03-18T16:27:34.104Z,17.40
2023-03-18T16:29:17.656Z,17.40
2023-03-18T16:30:53.500Z,17.30
2023-03-18T16:32:27.312Z,17.20
2023-03-18T16:34:01.701Z,17.10
2023-03-18T16:35:35.963Z,17.00
2023-03-18T16:37:18.221Z,16.90
2023-03-18T16:38:51.202Z,16.80
2023-03-18T16:40:26.077Z,16.80
2023-03-18T16:41:59.080Z,16.70
2023-03-18T16:43:33.695Z,16.60
2023-03-18T16:45:08.215Z,16.50
2023-03-18T16:46:44.030Z,16.50
2023-03-18T16:48:19.868Z,16.40
2023-03-18T16:49:55.663Z,16.30
2023-03-18T16:51:28.576Z,16.30
2023-03-18T16:53:00.540Z,16.20
2023-03-18T16:54:34.395Z,16.20
2023-03-18T16:56:16.615Z,16.20
2023-03-18T16:57:52.447Z,16.10
2023-03-18T16:59:29.901Z,16.10
2023-03-18T17:01:04.793Z,16.10
2023-03-18T17:02:38.194Z,16.10
2023-03-18T17:04:17.563Z,16.00
2023-03-18T17:05:52.986Z,16.00
2023-03-18T17:07:26.708Z,15.90
2023-03-18T17:08:59.906Z,15.80
2023-03-18T17:10:32.753Z,15.80
2023-03-18T17:12:07.372Z,15.70
2023-03-18T17:13:40.352Z,15.60
2023-03-18T17:15:17.631Z,15.60
2023-03-18T17:16:50.743Z,15.50
2023-03-18T17:18:26.085Z,15.50
2023-03-18T17:19:59.773Z,15.40
2023-03-18T17:21:34.468Z,15.30
2023-03-18T17:23:08.362Z,15.30
2023-03-18T17:24:41.350Z,15.30
2023-03-18T17:26:15.844Z,15.20
2023-03-18T17:27:51.510Z,15.20
2023-03-18T17:29:26.630Z,15.10
2023-03-18T17:31:00.016Z,15.10
2023-03-18T17:32:34.080Z,15.00
2023-03-18T17:34:14.209Z,14.90
2023-03-18T17:35:47.307Z,14.90
2023-03-18T17:37:23.475Z,15.00
2023-03-18T17:38:58.765Z,14.90
2023-03-18T17:40:31.857Z,14.90
2023-03-18T17:42:05.972Z,14.80
2023-03-18T17:43:38.957Z,14.80
2023-03-18T17:45:24.190Z,14.80
2023-03-18T17:46:58.061Z,14.70
2023-03-18T17:48:32.394Z,14.70
2023-03-18T17:50:05.983Z,14.70
2023-03-18T17:51:39.437Z,14.70
2023-03-18T17:53:26.494Z,14.70
2023-03-18T17:54:59.330Z,14.60
2023-03-18T17:56:32.623Z,14.60
2023-03-18T17:58:06.740Z,14.60
2023-03-18T17:59:39.767Z,14.60
2023-03-18T18:01:16.252Z,14.60
2023-03-18T18:02:49.749Z,14.60
2023-03-18T18:04:24.790Z,14.50
2023-03-18T18:05:58.479Z,14.60
2023-03-18T18:07:31.455Z,14.50
2023-03-18T18:09:06.582Z,14.50
2023-03-18T18:10:39.661Z,14.50
2023-03-18T18:12:18.193Z,14.50
2023-03-18T18:13:52.187Z,14.50
2023-03-18T18:15:27.570Z,14.40
2023-03-18T18:17:07.715Z,14.30
2023-03-18T18:18:49.472Z,14.30
2023-03-18T18:20:29.781Z,14.30
2023-03-18T18:22:17.533Z,14.20
2023-03-18T18:23:54.766Z,14.20
2023-03-18T18:25:35.888Z,14.20
2023-03-18T18:27:14.565Z,14.20
2023-03-18T18:28:49.500Z,14.20
2023-03-18T18:30:43.668Z,14.20
2023-03-18T18:32:43.990Z,14.20
2023-03-18T18:34:32.439Z,14.10
2023-03-18T18:36:19.095Z,14.00
2023-03-18T18:38:15.276Z,14.00
2023-03-18T18:39:48.303Z,13.90
2023-03-18T18:41:22.637Z,13.90
2023-03-18T18:42:55.648Z,13.80
2023-03-18T18:44:47.060Z,13.70
2023-03-18T18:47:08.987Z,13.70
2023-03-18T18:48:42.330Z,13.60
2023-03-18T18:50:17.112Z,13.60
2023-03-18T18:51:50.772Z,13.60
2023-03-18T18:53:25.635Z,13.60
2023-03-18T18:54:58.594Z,13.60
2023-03-18T18:56:36.467Z,13.60
2023-03-18T18:58:16.127Z,13.50
2023-03-18T18:59:49.233Z,13.50
2023-03-18T19:01:23.184Z,13.50
2023-03-18T19:02:58.000Z,13.50
2023-03-18T19:04:30.971Z,13.60
2023-03-18T19:06:06.632Z,13.60
2023-03-18T19:07:40.718Z,13.60
2023-03-18T19:09:19.064Z,13.60
2023-03-18T19:10:53.699Z,13.60
2023-03-18T19:12:28.535Z,13.60
2023-03-18T19:14:18.618Z,13.70
2023-03-18T19:15:53.320Z,13.70
2023-03-18T19:17:26.266Z,13.70
2023-03-18T19:18:59.847Z,13.70
2023-03-18T19:20:33.393Z,13.70
2023-03-18T19:22:07.474Z,13.70
2023-03-18T19:23:40.542Z,13.70
2023-03-18T19:25:13.883Z,13.70
2023-03-18T19:26:46.615Z,13.70
2023-03-18T19:28:31.464Z,13.70
2023-03-18T19:30:17.223Z,13.60
2023-03-18T19:31:50.447Z,13.60
2023-03-18T19:33:23.300Z,13.50
2023-03-18T19:34:56.326Z,13.50
2023-03-18T19:36:31.564Z,13.50
2023-03-18T19:38:04.692Z,13.50
2023-03-18T19:39:38.171Z,13.50
2023-03-18T19:41:11.636Z,13.50
2023-03-18T19:42:44.661Z,13.50
2023-03-18T19:44:21.044Z,13.50
2023-03-18T19:45:54.251Z,13.50
2023-03-18T19:47:29.860Z,13.50
2023-03-18T19:49:33.731Z,13.40
2023-03-18T19:51:08.261Z,13.40
2023-03-18T19:52:41.543Z,13.30
2023-03-18T19:54:22.415Z,13.30
2023-03-18T19:55:55.724Z,13.30
2023-03-18T19:57:31.728Z,13.20
2023-03-18T19:59:06.623Z,13.10
2023-03-18T20:00:41.315Z,13.10
2023-03-18T20:02:23.211Z,13.00
2023-03-18T20:03:58.190Z,13.00
2023-03-18T20:05:31.740Z,12.90
2023-03-18T20:07:06.382Z,12.90
2023-03-18T20:08:39.285Z,12.80
2023-03-18T20:10:13.810Z,12.80
2023-03-18T20:11:47.719Z,12.80
2023-03-18T20:13:20.902Z,12.70
2023-03-18T20:14:53.736Z,12.70
2023-03-18T20:16:29.531Z,12.60
2023-03-18T20:18:02.506Z,12.60
2023-03-18T20:19:34.459Z,12.60
2023-03-18T20:21:10.700Z,12.50
2023-03-18T20:22:48.084Z,12.50
2023-03-18T20:24:28.580Z,12.40
2023-03-18T20:26:01.947Z,12.30
2023-03-18T20:27:35.076Z,12.20
2023-03-18T20:29:17.460Z,12.20
2023-03-18T20:30:52.655Z,12.10
2023-03-18T20:32:26.092Z,12.10
2023-03-18T20:33:58.827Z,12.00
2023-03-18T20:35:34.001Z,12.00
2023-03-18T20:37:08.317Z,11.90
2023-03-18T20:38:42.150Z,11.90
2023-03-18T20:40:21.679Z,11.80
2023-03-18T20:41:54.665Z,11.80
2023-03-18T20:43:28.826Z,11.80
2023-03-18T20:45:01.812Z,11.80
2023-03-18T20:46:34.797Z,11.80
2023-03-18T20:48:09.662Z,11.70
2023-03-18T20:49:44.601Z,11.70
2023-03-18T20:51:22.081Z,11.70
2023-03-18T20:52:55.133Z,11.60
2023-03-18T20:54:31.463Z,11.60
2023-03-18T20:56:04.468Z,11.60
2023-03-18T20:57:36.726Z,11.50
2023-03-18T20:59:10.470Z,11.50
2023-03-18T21:00:43.962Z,11.40
2023-03-18T21:02:38.026Z,11.40